createdAt,value
2022-12-02T00:01:05.807Z,0.72
2022-12-02T00:16:48.828Z,0.76
2022-12-02T00:32:31.137Z,0.74
2022-12-02T00:48:14.204Z,0.76
2022-12-02T01:03:56.984Z,0.75
2022-12-02T01:19:39.611Z,0.77
2022-12-02T01:35:21.949Z,0.76
2022-12-02T01:51:04.751Z,0.79
2022-12-02T02:06:47.817Z,0.8
2022-12-02T02:22:30.835Z,0.83
2022-12-02T02:38:13.795Z,0.81
2022-12-02T02:53:56.491Z,0.77
2022-12-02T03:09:39.417Z,0.75
2022-12-02T03:25:21.691Z,0.73
2022-12-02T03:41:04.789Z,0.73
2022-12-02T03:56:47.294Z,0.76
2022-12-02T04:12:30.411Z,0.79
2022-12-02T04:28:13.188Z,0.79
2022-12-02T04:43:55.758Z,0.75
2022-12-02T04:59:38.181Z,0.68
2022-12-02T05:15:21.024Z,0.65
2022-12-02T05:31:03.933Z,0.64
2022-12-02T05:46:46.895Z,0.68
2022-12-02T06:02:29.089Z,0.71
2022-12-02T06:18:11.313Z,0.74
2022-12-02T06:33:54.202Z,0.76
2022-12-02T06:49:36.913Z,0.79
2022-12-02T07:05:19.002Z,0.82
2022-12-02T07:21:01.828Z,0.84
2022-12-02T07:36:44.513Z,0.86
2022-12-02T07:52:26.871Z,0.85
2022-12-02T08:08:09.044Z,0.87
2022-12-02T08:23:51.528Z,0.9
2022-12-02T08:39:34.511Z,1.26
2022-12-02T08:55:17.231Z,1.48
2022-12-02T09:10:59.490Z,1.45
2022-12-02T09:26:42.432Z,1.49
2022-12-02T09:42:24.697Z,1.65
2022-12-02T09:58:07.616Z,1.58
2022-12-02T10:13:50.450Z,1.58
2022-12-02T10:29:33.488Z,1.5
2022-12-02T10:45:16.303Z,1.37
2022-12-02T11:00:59.022Z,1.33
2022-12-02T11:16:41.337Z,1.45
2022-12-02T11:32:24.381Z,1.39
2022-12-02T11:48:06.957Z,1.31
2022-12-02T12:03:49.767Z,1.17
2022-12-02T12:19:32.465Z,1.11
2022-12-02T12:35:15.021Z,1.04
2022-12-02T12:50:57.423Z,1.07
2022-12-02T13:06:39.883Z,1
2022-12-02T13:22:22.799Z,0.95
2022-12-02T13:38:05.783Z,0.86
2022-12-02T13:53:48.764Z,0.72
2022-12-02T14:09:31.330Z,0.57
2022-12-02T14:25:13.686Z,0.46
2022-12-02T14:40:56.012Z,0.32
2022-12-02T14:56:38.526Z,0.29
2022-12-02T15:12:21.437Z,0.22
2022-12-02T15:28:03.960Z,0.12
2022-12-02T15:43:46.456Z,0.02
2022-12-02T15:59:29.244Z,0.02
2022-12-02T16:15:11.855Z,167772.05
2022-12-02T16:30:54.871Z,167771.96
2022-12-02T16:46:37.431Z,167771.85
2022-12-02T17:02:19.718Z,167771.81
2022-12-02T17:18:02.793Z,167771.73
2022-12-02T17:18:50.289Z,167771.96
2022-12-02T17:34:33.173Z,167771.75
2022-12-02T17:50:15.886Z,167771.6
2022-12-02T18:05:58.412Z,167771.51
2022-12-02T18:21:41.210Z,167771.49
2022-12-02T18:37:24.385Z,167771.47
2022-12-02T18:53:07.377Z,167771.36
2022-12-02T19:08:50.168Z,167771.28
2022-12-02T19:24:33.156Z,167771.26
2022-12-02T19:40:16.020Z,167771.24
2022-12-02T19:55:58.834Z,167771.18
2022-12-02T20:11:42.011Z,167771.16
2022-12-02T20:27:24.866Z,167771.12
2022-12-02T20:43:07.930Z,167771.08
2022-12-02T20:58:50.226Z,167771.07
2022-12-02T21:14:32.820Z,167771.04
2022-12-02T21:30:15.568Z,167770.99
2022-12-02T21:45:58.656Z,167771.07
2022-12-02T22:01:41.485Z,167771.17
2022-12-02T22:17:23.832Z,167771.07
2022-12-02T22:33:06.411Z,167771
2022-12-02T22:48:49.046Z,167770.94
2022-12-02T23:04:32.170Z,167770.86
2022-12-02T23:20:15.239Z,167770.88
2022-12-02T23:35:57.391Z,167770.83
2022-12-02T23:51:40.255Z,167770.86
